Forside
METAR-TAF:

METAR-TAF

Lufthavne :

Effingham County Memorial Airport

Effingham, Illinois, USA

Breddekreds: 39-04-14N, længdekreds: 088-32-00W, højde: 179 m

Aktuelle vejr

Denne rapport blev lavet for 27 minutter siden, kl. 17:15 UTC
Vind 12 kt fra øst med vindstød på up til 18 kt
Temperatur -7°C
Fugtighed 57%
Tryk 1034 hPa
Sigt: 16.1 km
Spredte skyer i en højde af 11000 ft

METAR: K1H2 211715Z AUTO 08012G18KT 10SM SCT110 M07/M14 A3054 RMK AO2 T10711140

Tid: 11:42 (17:42 UTC)


TAF: fraværende

Vejrobservationer og prognoser fra mere end 4000 lufthavne (METAR og TAF).

De gule og røde prikker repræsenterer de meteorologiske stationer.

Flyt musen over at se navnet på stationen.

Så klik over at se vejr observationer og prognoser.

At skifte det kort: Klik på de grønne knapper med et sort kors for at zoome ind; på den grønne knap med en bindestreg for at zoome ud; eller på de grønne pile for tilstødende kort.


METAR-TAF: